createdAt,value
2019-01-31T00:00:01.209Z,2.10
2019-01-31T00:05:43.904Z,4.13
2019-01-31T00:11:32.925Z,4.90
2019-01-31T00:17:31.895Z,4.90
2019-01-31T00:23:20.926Z,5.20
2019-01-31T00:29:22.197Z,8.50
2019-01-31T00:35:23.449Z,7.30
2019-01-31T00:41:09.119Z,11.40
2019-01-31T00:46:57.975Z,9.90
2019-01-31T00:52:34.872Z,4.47
2019-01-31T00:58:17.722Z,6.03
2019-01-31T01:04:28.044Z,5.73
2019-01-31T01:10:30.688Z,2.80
2019-01-31T01:16:15.858Z,4.33
2019-01-31T01:21:59.118Z,1.87
2019-01-31T01:27:51.171Z,1.87
2019-01-31T01:33:34.032Z,1.23
2019-01-31T01:39:59.808Z,2.90
2019-01-31T01:45:42.517Z,2.03
2019-01-31T01:51:22.115Z,3.23
2019-01-31T01:56:56.189Z,2.13
2019-01-31T02:03:04.343Z,2.53
2019-01-31T02:09:08.501Z,3.17
2019-01-31T02:15:06.483Z,2.47
2019-01-31T02:21:15.150Z,3.07
2019-01-31T02:27:17.439Z,1.60
2019-01-31T02:33:23.291Z,4.10
2019-01-31T02:39:24.359Z,3.83
2019-01-31T02:45:04.200Z,2.10
2019-01-31T02:50:47.332Z,1.83
2019-01-31T02:56:33.243Z,3.83
2019-01-31T03:02:22.247Z,2.33
2019-01-31T03:08:20.812Z,1.20
2019-01-31T03:14:10.276Z,1.40
2019-01-31T03:19:51.860Z,2.37
2019-01-31T03:25:25.980Z,2.03
2019-01-31T03:31:25.657Z,3.33
2019-01-31T03:37:05.343Z,3.00
2019-01-31T03:42:54.405Z,3.70
2019-01-31T03:48:40.322Z,1.57
2019-01-31T03:54:36.810Z,1.60
2019-01-31T04:00:13.402Z,2.97
2019-01-31T04:05:47.493Z,2.00
2019-01-31T04:11:16.932Z,7.23
2019-01-31T04:16:46.255Z,4.10
2019-01-31T04:22:15.572Z,2.43
2019-01-31T04:27:45.035Z,2.50
2019-01-31T04:33:14.525Z,8.80
2019-01-31T04:38:43.862Z,2.10
2019-01-31T04:44:13.185Z,3.50
2019-01-31T04:49:42.518Z,2.47
2019-01-31T04:55:12.294Z,3.13
2019-01-31T05:00:42.285Z,6.97
2019-01-31T05:06:11.582Z,1.20
2019-01-31T05:11:41.006Z,3.63
2019-01-31T05:17:10.758Z,10.67
2019-01-31T05:22:41.256Z,2.40
2019-01-31T05:28:16.872Z,5.17
2019-01-31T05:33:46.214Z,4.50
2019-01-31T05:39:15.538Z,7.87
2019-01-31T05:44:45.092Z,3.00
2019-01-31T05:50:18.156Z,4.43
2019-01-31T05:55:48.081Z,3.67
2019-01-31T06:01:17.714Z,2.13
2019-01-31T06:06:47.222Z,6.47
2019-01-31T06:12:16.694Z,9.30
2019-01-31T06:17:46.350Z,7.93
2019-01-31T06:23:20.102Z,9.07
2019-01-31T06:28:49.432Z,9.33
2019-01-31T06:34:18.867Z,31.17
2019-01-31T06:39:48.210Z,28.10
2019-01-31T06:45:20.267Z,15.90
2019-01-31T06:50:49.656Z,13.30
2019-01-31T06:56:19.101Z,10.60
2019-01-31T07:01:48.569Z,20.37
2019-01-31T07:07:18.085Z,14.73
2019-01-31T07:12:47.406Z,8.60
2019-01-31T07:18:16.762Z,7.90
2019-01-31T07:23:46.150Z,12.50
2019-01-31T07:29:15.522Z,10.00
2019-01-31T07:34:44.872Z,6.50
2019-01-31T07:40:20.410Z,8.47
2019-01-31T07:45:49.722Z,7.17
2019-01-31T07:51:19.058Z,10.03
2019-01-31T07:56:48.493Z,7.40
2019-01-31T08:02:17.936Z,8.87
2019-01-31T08:07:48.156Z,14.93
2019-01-31T08:13:17.733Z,9.77
2019-01-31T08:18:47.040Z,5.50
2019-01-31T08:24:16.408Z,7.43
2019-01-31T08:29:45.908Z,8.10
2019-01-31T08:35:15.824Z,8.90
2019-01-31T08:40:45.200Z,7.33
2019-01-31T08:46:14.540Z,3.80
2019-01-31T08:51:43.868Z,5.50
2019-01-31T08:57:13.402Z,4.80
2019-01-31T09:02:42.718Z,4.77
2019-01-31T09:08:12.124Z,5.07
2019-01-31T09:13:41.523Z,3.90
2019-01-31T09:19:11.056Z,3.47
2019-01-31T09:24:56.565Z,1.93
2019-01-31T09:30:36.583Z,6.73
2019-01-31T09:36:13.215Z,3.80
2019-01-31T09:42:12.899Z,4.37
2019-01-31T09:47:49.637Z,2.43
2019-01-31T09:53:59.958Z,6.37
2019-01-31T09:59:39.889Z,5.80
2019-01-31T10:05:42.356Z,8.17
2019-01-31T10:11:58.915Z,3.30
2019-01-31T10:17:53.425Z,3.57
2019-01-31T10:23:47.986Z,3.80
2019-01-31T10:29:47.180Z,15.53
2019-01-31T10:35:41.434Z,13.03
2019-01-31T10:41:35.974Z,2.63
2019-01-31T10:47:30.850Z,4.30
2019-01-31T10:53:36.590Z,14.83
2019-01-31T10:59:28.783Z,9.70
2019-01-31T11:05:22.419Z,4.37
2019-01-31T11:11:01.609Z,15.30
2019-01-31T11:16:44.312Z,4.90
2019-01-31T11:22:45.541Z,4.23
2019-01-31T11:28:31.450Z,4.50
2019-01-31T11:34:32.728Z,1.97
2019-01-31T11:40:15.510Z,2.80
2019-01-31T11:45:58.182Z,1.83
2019-01-31T11:51:54.660Z,2.13
2019-01-31T11:58:01.981Z,1.33
2019-01-31T12:03:31.626Z,4.37
2019-01-31T12:09:01.034Z,2.77
2019-01-31T12:14:30.430Z,3.63
2019-01-31T12:19:59.748Z,3.30
2019-01-31T12:25:29.298Z,3.17
2019-01-31T12:30:58.772Z,2.10
2019-01-31T12:36:28.250Z,2.37
2019-01-31T12:41:57.666Z,1.57
2019-01-31T12:47:27.149Z,1.20
2019-01-31T12:52:56.716Z,1.10
2019-01-31T12:58:33.344Z,1.93
2019-01-31T13:03:57.356Z,2.77
2019-01-31T13:09:28.403Z,5.10
2019-01-31T13:15:00.052Z,1.37
2019-01-31T13:20:29.531Z,6.73
2019-01-31T13:25:58.984Z,0.97
2019-01-31T13:31:28.509Z,1.50
2019-01-31T13:36:57.976Z,1.57
2019-01-31T13:42:27.430Z,1.63
2019-01-31T13:48:01.637Z,1.10
2019-01-31T13:53:31.023Z,4.13
2019-01-31T13:59:00.443Z,1.30
2019-01-31T14:04:29.887Z,2.07
2019-01-31T14:09:59.285Z,4.63
2019-01-31T14:15:34.126Z,2.23
2019-01-31T14:21:03.674Z,3.10
2019-01-31T14:26:32.980Z,4.87
2019-01-31T14:32:02.334Z,4.37
2019-01-31T14:37:31.857Z,2.90
2019-01-31T14:43:01.265Z,1.80
2019-01-31T14:48:30.576Z,4.50
2019-01-31T14:53:59.908Z,1.47
2019-01-31T14:59:29.472Z,5.40
2019-01-31T15:04:58.872Z,4.20
2019-01-31T15:10:32.435Z,3.57
2019-01-31T15:16:01.855Z,4.83
2019-01-31T15:21:31.396Z,3.23
2019-01-31T15:27:00.784Z,7.80
2019-01-31T15:32:32.878Z,7.33
2019-01-31T15:38:01.473Z,4.30
2019-01-31T15:43:30.844Z,3.13
2019-01-31T15:49:02.402Z,5.43
2019-01-31T15:54:32.014Z,11.90
2019-01-31T16:00:01.441Z,7.13
2019-01-31T16:05:30.882Z,6.03
2019-01-31T16:11:00.285Z,5.70
2019-01-31T16:16:29.701Z,5.17
2019-01-31T16:21:59.097Z,7.70
2019-01-31T16:27:32.316Z,16.03
2019-01-31T16:33:01.769Z,4.33
2019-01-31T16:38:31.151Z,7.33
2019-01-31T16:44:00.852Z,7.07
2019-01-31T16:49:30.317Z,5.97
2019-01-31T16:54:59.919Z,4.40
2019-01-31T17:00:34.120Z,10.23
2019-01-31T17:06:03.910Z,9.50
2019-01-31T17:11:33.649Z,10.20
2019-01-31T17:17:03.086Z,5.77
2019-01-31T17:22:32.442Z,11.60
2019-01-31T17:28:01.832Z,6.30
2019-01-31T17:33:31.388Z,10.80
2019-01-31T17:39:01.277Z,14.23
2019-01-31T17:44:30.982Z,14.60
2019-01-31T17:50:00.470Z,11.53
2019-01-31T17:55:30.583Z,12.30
2019-01-31T18:01:00.275Z,12.00
2019-01-31T18:06:29.858Z,20.90
2019-01-31T18:12:00.599Z,17.23
2019-01-31T18:17:30.205Z,21.47
2019-01-31T18:22:59.893Z,7.00
2019-01-31T18:28:30.831Z,7.93
2019-01-31T18:34:00.404Z,10.13
2019-01-31T18:39:30.129Z,7.57
2019-01-31T18:45:00.062Z,7.10
2019-01-31T18:50:32.520Z,6.60
2019-01-31T18:56:02.039Z,6.93
2019-01-31T19:01:31.807Z,8.77
2019-01-31T19:07:01.717Z,12.77
2019-01-31T19:12:31.671Z,8.90
2019-01-31T19:18:11.579Z,6.90
2019-01-31T19:23:42.181Z,9.87
2019-01-31T19:29:12.546Z,19.63
2019-01-31T19:34:42.035Z,21.77
2019-01-31T19:40:16.064Z,14.10
2019-01-31T19:45:48.440Z,10.37
2019-01-31T19:51:21.207Z,11.10
2019-01-31T19:57:21.660Z,13.90
2019-01-31T20:22:33.308Z,8.83
2019-01-31T20:34:49.190Z,7.13
2019-01-31T20:40:28.377Z,6.50
2019-01-31T20:51:58.027Z,6.20
2019-01-31T20:57:28.152Z,6.67
2019-01-31T21:02:57.985Z,6.63
2019-01-31T21:08:28.096Z,9.40
2019-01-31T21:13:57.910Z,8.53
2019-01-31T21:19:30.628Z,8.07
2019-01-31T21:24:59.201Z,8.23
2019-01-31T21:30:33.504Z,6.63
2019-01-31T21:36:03.501Z,6.43
2019-01-31T21:41:37.138Z,7.93
2019-01-31T21:47:06.596Z,5.47
2019-01-31T21:52:36.165Z,8.30
2019-01-31T21:58:05.914Z,10.30
2019-01-31T22:03:35.883Z,4.90
2019-01-31T22:09:08.492Z,6.60
2019-01-31T22:14:38.008Z,7.25
2019-01-31T22:20:10.195Z,13.73
2019-01-31T22:25:39.875Z,4.17
2019-01-31T22:31:09.305Z,4.40
2019-01-31T22:36:38.740Z,7.00
2019-01-31T22:42:08.053Z,7.00
2019-01-31T22:47:42.735Z,7.13
2019-01-31T22:53:12.235Z,5.97
2019-01-31T22:58:42.606Z,5.73
2019-01-31T23:04:12.349Z,5.00
2019-01-31T23:09:41.703Z,7.90
2019-01-31T23:15:11.881Z,4.93
2019-01-31T23:20:44.270Z,7.00
2019-01-31T23:26:12.673Z,4.83
2019-01-31T23:31:42.103Z,4.27
2019-01-31T23:37:11.487Z,6.17
2019-01-31T23:42:40.938Z,6.63
2019-01-31T23:48:10.384Z,3.90
2019-01-31T23:53:39.759Z,3.60
2019-01-31T23:59:09.137Z,5.33
